sensor_id;sensor_type;location;lat;lon;timestamp;pressure;altitude;pressure_sealevel;temperature;humidity
16595;BME280;8410;52.532;13.336;2023-06-22T00:00:18;101402.97;;;24.56;70.46
16595;BME280;8410;52.532;13.336;2023-06-22T00:02:47;101410.91;;;24.80;70.42
16595;BME280;8410;52.532;13.336;2023-06-22T00:05:15;101408.88;;;24.38;71.74
16595;BME280;8410;52.532;13.336;2023-06-22T00:07:44;101414.03;;;24.66;70.09
16595;BME280;8410;52.532;13.336;2023-06-22T00:10:11;101418.31;;;24.43;71.06
16595;BME280;8410;52.532;13.336;2023-06-22T00:12:39;101421.84;;;24.42;71.67
16595;BME280;8410;52.532;13.336;2023-06-22T00:15:07;101421.91;;;24.68;70.02
16595;BME280;8410;52.532;13.336;2023-06-22T00:17:34;101429.03;;;24.11;72.25
16595;BME280;8410;52.532;13.336;2023-06-22T00:20:02;101427.91;;;24.71;70.12
16595;BME280;8410;52.532;13.336;2023-06-22T00:22:33;101429.19;;;24.84;69.90
16595;BME280;8410;52.532;13.336;2023-06-22T00:25:07;101434.91;;;24.46;71.11
16595;BME280;8410;52.532;13.336;2023-06-22T00:27:35;101446.06;;;23.72;73.62
16595;BME280;8410;52.532;13.336;2023-06-22T00:30:03;101433.56;;;24.34;71.46
16595;BME280;8410;52.532;13.336;2023-06-22T00:32:31;101444.03;;;24.09;72.53
16595;BME280;8410;52.532;13.336;2023-06-22T00:34:58;101438.94;;;24.04;72.15
16595;BME280;8410;52.532;13.336;2023-06-22T00:37:26;101445.00;;;23.78;73.57
16595;BME280;8410;52.532;13.336;2023-06-22T00:39:55;101445.13;;;23.75;74.41
16595;BME280;8410;52.532;13.336;2023-06-22T00:42:24;101440.69;;;24.04;72.79
16595;BME280;8410;52.532;13.336;2023-06-22T00:44:52;101439.56;;;24.11;72.78
16595;BME280;8410;52.532;13.336;2023-06-22T00:47:20;101446.16;;;23.40;74.98
16595;BME280;8410;52.532;13.336;2023-06-22T00:49:49;101449.72;;;23.67;73.64
16595;BME280;8410;52.532;13.336;2023-06-22T00:52:18;101452.06;;;23.17;75.89
16595;BME280;8410;52.532;13.336;2023-06-22T00:54:47;101443.31;;;23.18;75.96
16595;BME280;8410;52.532;13.336;2023-06-22T00:57:15;101448.09;;;23.33;76.34
16595;BME280;8410;52.532;13.336;2023-06-22T00:59:45;101450.63;;;23.66;74.76
16595;BME280;8410;52.532;13.336;2023-06-22T01:02:14;101450.66;;;23.64;74.10
16595;BME280;8410;52.532;13.336;2023-06-22T01:04:42;101447.94;;;23.39;75.40
16595;BME280;8410;52.532;13.336;2023-06-22T01:07:14;101446.47;;;23.59;74.43
16595;BME280;8410;52.532;13.336;2023-06-22T01:09:51;101451.97;;;23.49;75.32
16595;BME280;8410;52.532;13.336;2023-06-22T01:12:21;101453.63;;;23.83;74.27
16595;BME280;8410;52.532;13.336;2023-06-22T01:14:55;101455.09;;;23.92;73.92
16595;BME280;8410;52.532;13.336;2023-06-22T01:17:26;101458.34;;;23.13;76.50
16595;BME280;8410;52.532;13.336;2023-06-22T01:19:54;101454.63;;;22.87;78.43
16595;BME280;8410;52.532;13.336;2023-06-22T01:22:24;101458.94;;;22.89;77.69
16595;BME280;8410;52.532;13.336;2023-06-22T01:25:04;101455.88;;;23.06;77.82
16595;BME280;8410;52.532;13.336;2023-06-22T01:27:39;101452.03;;;23.77;74.66
16595;BME280;8410;52.532;13.336;2023-06-22T01:30:10;101455.72;;;23.13;76.94
16595;BME280;8410;52.532;13.336;2023-06-22T01:32:39;101464.13;;;22.58;79.28
16595;BME280;8410;52.532;13.336;2023-06-22T01:35:09;101458.75;;;22.96;77.65
16595;BME280;8410;52.532;13.336;2023-06-22T01:37:38;101471.59;;;22.41;80.53
16595;BME280;8410;52.532;13.336;2023-06-22T01:40:07;101475.78;;;22.48;79.96
16595;BME280;8410;52.532;13.336;2023-06-22T01:42:36;101475.91;;;22.78;79.48
16595;BME280;8410;52.532;13.336;2023-06-22T01:45:05;101468.91;;;22.77;78.41
16595;BME280;8410;52.532;13.336;2023-06-22T01:47:35;101483.06;;;22.71;78.83
16595;BME280;8410;52.532;13.336;2023-06-22T01:50:04;101483.91;;;22.00;82.19
16595;BME280;8410;52.532;13.336;2023-06-22T01:52:31;101482.28;;;22.32;81.13
16595;BME280;8410;52.532;13.336;2023-06-22T01:55:00;101475.47;;;22.60;80.46
16595;BME280;8410;52.532;13.336;2023-06-22T01:57:28;101476.06;;;22.37;80.75
16595;BME280;8410;52.532;13.336;2023-06-22T02:00:00;101475.97;;;22.40;80.61
16595;BME280;8410;52.532;13.336;2023-06-22T02:02:33;101476.28;;;22.62;80.12
16595;BME280;8410;52.532;13.336;2023-06-22T02:05:07;101469.06;;;22.71;79.99
16595;BME280;8410;52.532;13.336;2023-06-22T02:07:39;101468.34;;;22.98;78.49
16595;BME280;8410;52.532;13.336;2023-06-22T02:10:09;101477.31;;;22.57;80.22
16595;BME280;8410;52.532;13.336;2023-06-22T02:12:38;101479.06;;;22.56;81.09
16595;BME280;8410;52.532;13.336;2023-06-22T02:15:08;101476.31;;;22.61;80.50
16595;BME280;8410;52.532;13.336;2023-06-22T02:17:37;101481.81;;;22.14;83.23
16595;BME280;8410;52.532;13.336;2023-06-22T02:20:12;101490.25;;;22.64;81.58
16595;BME280;8410;52.532;13.336;2023-06-22T02:22:40;101484.06;;;22.67;81.34
16595;BME280;8410;52.532;13.336;2023-06-22T02:25:07;101493.66;;;22.66;81.55
16595;BME280;8410;52.532;13.336;2023-06-22T02:27:35;101491.31;;;22.21;83.74
16595;BME280;8410;52.532;13.336;2023-06-22T02:30:03;101491.47;;;22.84;81.36
16595;BME280;8410;52.532;13.336;2023-06-22T02:32:31;101499.63;;;23.07;79.67
16595;BME280;8410;52.532;13.336;2023-06-22T02:35:00;101482.06;;;23.09;80.43
16595;BME280;8410;52.532;13.336;2023-06-22T02:37:32;101495.56;;;22.61;82.80
16595;BME280;8410;52.532;13.336;2023-06-22T02:40:00;101495.41;;;22.67;82.47
16595;BME280;8410;52.532;13.336;2023-06-22T02:42:27;101487.13;;;22.83;82.65
16595;BME280;8410;52.532;13.336;2023-06-22T02:44:55;101487.94;;;22.85;82.38
16595;BME280;8410;52.532;13.336;2023-06-22T02:47:22;101490.69;;;22.09;85.20
16595;BME280;8410;52.532;13.336;2023-06-22T02:49:50;101492.06;;;22.27;85.50
16595;BME280;8410;52.532;13.336;2023-06-22T02:52:17;101495.03;;;22.47;84.18
16595;BME280;8410;52.532;13.336;2023-06-22T02:54:46;101499.19;;;22.21;85.31
16595;BME280;8410;52.532;13.336;2023-06-22T02:57:14;101498.66;;;22.04;85.23
16595;BME280;8410;52.532;13.336;2023-06-22T02:59:41;101494.16;;;22.11;85.94
16595;BME280;8410;52.532;13.336;2023-06-22T03:02:09;101491.56;;;22.81;83.06
16595;BME280;8410;52.532;13.336;2023-06-22T03:04:37;101485.66;;;22.37;84.92
16595;BME280;8410;52.532;13.336;2023-06-22T03:07:05;101484.44;;;22.52;84.58
16595;BME280;8410;52.532;13.336;2023-06-22T03:09:33;101490.06;;;22.71;83.50
16595;BME280;8410;52.532;13.336;2023-06-22T03:12:01;101495.69;;;22.55;84.47
16595;BME280;8410;52.532;13.336;2023-06-22T03:14:29;101493.91;;;22.92;82.27
16595;BME280;8410;52.532;13.336;2023-06-22T03:16:56;101488.50;;;22.63;83.29
16595;BME280;8410;52.532;13.336;2023-06-22T03:19:28;101481.88;;;22.83;83.07
16595;BME280;8410;52.532;13.336;2023-06-22T03:21:58;101486.59;;;22.34;84.76
16595;BME280;8410;52.532;13.336;2023-06-22T03:24:26;101482.22;;;23.03;82.60
16595;BME280;8410;52.532;13.336;2023-06-22T03:26:55;101474.47;;;23.60;78.70
16595;BME280;8410;52.532;13.336;2023-06-22T03:29:25;101479.66;;;23.02;80.75
16595;BME280;8410;52.532;13.336;2023-06-22T03:31:56;101480.09;;;23.18;79.72
16595;BME280;8410;52.532;13.336;2023-06-22T03:34:24;101486.63;;;23.01;79.59
16595;BME280;8410;52.532;13.336;2023-06-22T03:36:51;101499.63;;;22.73;81.34
16595;BME280;8410;52.532;13.336;2023-06-22T03:39:19;101487.56;;;23.00;79.54
16595;BME280;8410;52.532;13.336;2023-06-22T03:41:47;101486.63;;;23.64;76.96
16595;BME280;8410;52.532;13.336;2023-06-22T03:44:14;101475.81;;;24.56;73.77
16595;BME280;8410;52.532;13.336;2023-06-22T03:46:43;101470.19;;;24.92;71.81
16595;BME280;8410;52.532;13.336;2023-06-22T03:49:10;101476.41;;;25.61;68.20
16595;BME280;8410;52.532;13.336;2023-06-22T03:51:38;101474.91;;;26.22;66.87
16595;BME280;8410;52.532;13.336;2023-06-22T03:54:05;101470.47;;;25.56;68.03
16595;BME280;8410;52.532;13.336;2023-06-22T03:56:33;101470.50;;;26.00;66.49
16595;BME280;8410;52.532;13.336;2023-06-22T03:59:00;101465.38;;;25.28;68.65
16595;BME280;8410;52.532;13.336;2023-06-22T04:01:28;101473.56;;;26.11;66.41
16595;BME280;8410;52.532;13.336;2023-06-22T04:03:57;101472.28;;;27.62;62.87
16595;BME280;8410;52.532;13.336;2023-06-22T04:06:24;101475.50;;;27.87;61.05
16595;BME280;8410;52.532;13.336;2023-06-22T04:08:52;101473.81;;;28.04;59.94
16595;BME280;8410;52.532;13.336;2023-06-22T04:11:20;101470.72;;;29.49;57.98
16595;BME280;8410;52.532;13.336;2023-06-22T04:13:48;101475.91;;;29.35;56.44
16595;BME280;8410;52.532;13.336;2023-06-22T04:16:17;101458.16;;;30.89;53.65
16595;BME280;8410;52.532;13.336;2023-06-22T04:18:45;101462.53;;;31.05;53.12
16595;BME280;8410;52.532;13.336;2023-06-22T04:21:14;101470.78;;;30.86;53.30
16595;BME280;8410;52.532;13.336;2023-06-22T04:23:41;101466.91;;;32.03;51.07
16595;BME280;8410;52.532;13.336;2023-06-22T04:26:10;101469.81;;;32.65;50.02
16595;BME280;8410;52.532;13.336;2023-06-22T04:28:37;101472.16;;;32.57;50.00
16595;BME280;8410;52.532;13.336;2023-06-22T04:31:05;101467.69;;;33.46;48.71
16595;BME280;8410;52.532;13.336;2023-06-22T04:33:33;101481.13;;;33.81;47.64
16595;BME280;8410;52.532;13.336;2023-06-22T04:36:00;101474.53;;;34.57;46.35
16595;BME280;8410;52.532;13.336;2023-06-22T04:38:29;101475.00;;;34.16;45.31
16595;BME280;8410;52.532;13.336;2023-06-22T04:40:59;101484.88;;;32.39;47.69
16595;BME280;8410;52.532;13.336;2023-06-22T04:43:27;101495.53;;;32.26;48.53
16595;BME280;8410;52.532;13.336;2023-06-22T04:45:56;101484.72;;;32.55;47.58
16595;BME280;8410;52.532;13.336;2023-06-22T05:01:19;101506.75;;;28.69;56.61
16595;BME280;8410;52.532;13.336;2023-06-22T05:03:48;101506.91;;;28.49;55.91
16595;BME280;8410;52.532;13.336;2023-06-22T05:06:16;101504.34;;;28.47;56.62
16595;BME280;8410;52.532;13.336;2023-06-22T05:08:44;101497.34;;;29.14;55.17
16595;BME280;8410;52.532;13.336;2023-06-22T05:11:11;101508.03;;;27.52;57.04
16595;BME280;8410;52.532;13.336;2023-06-22T05:13:39;101513.13;;;26.11;60.97
16595;BME280;8410;52.532;13.336;2023-06-22T05:16:06;101518.81;;;25.06;61.90
16595;BME280;8410;52.532;13.336;2023-06-22T05:18:35;101519.03;;;25.25;63.04
16595;BME280;8410;52.532;13.336;2023-06-22T05:21:03;101516.28;;;25.75;61.51
16595;BME280;8410;52.532;13.336;2023-06-22T05:23:30;101523.34;;;25.28;61.59
16595;BME280;8410;52.532;13.336;2023-06-22T05:25:58;101517.94;;;25.78;60.71
16595;BME280;8410;52.532;13.336;2023-06-22T05:28:25;101517.66;;;26.30;60.17
16595;BME280;8410;52.532;13.336;2023-06-22T05:30:53;101520.25;;;26.53;59.34
16595;BME280;8410;52.532;13.336;2023-06-22T05:33:21;101518.75;;;26.46;59.00
16595;BME280;8410;52.532;13.336;2023-06-22T05:35:49;101516.34;;;25.74;61.46
16595;BME280;8410;52.532;13.336;2023-06-22T05:38:17;101516.63;;;25.19;61.90
16595;BME280;8410;52.532;13.336;2023-06-22T05:40:44;101513.91;;;25.46;61.91
16595;BME280;8410;52.532;13.336;2023-06-22T05:43:12;101524.78;;;25.60;61.31
16595;BME280;8410;52.532;13.336;2023-06-22T05:45:39;101530.16;;;25.81;61.31
16595;BME280;8410;52.532;13.336;2023-06-22T05:48:07;101533.81;;;26.00;59.30
16595;BME280;8410;52.532;13.336;2023-06-22T05:50:35;101542.66;;;26.43;59.54
16595;BME280;8410;52.532;13.336;2023-06-22T05:53:04;101535.78;;;27.02;57.37
16595;BME280;8410;52.532;13.336;2023-06-22T05:55:33;101547.13;;;26.19;58.92
16595;BME280;8410;52.532;13.336;2023-06-22T05:58:01;101545.75;;;26.54;58.43
16595;BME280;8410;52.532;13.336;2023-06-22T06:00:29;101537.47;;;26.84;57.97
16595;BME280;8410;52.532;13.336;2023-06-22T06:02:57;101542.91;;;25.46;60.76
16595;BME280;8410;52.532;13.336;2023-06-22T06:05:29;101543.50;;;25.76;59.64
16595;BME280;8410;52.532;13.336;2023-06-22T06:07:57;101535.44;;;26.26;59.58
16595;BME280;8410;52.532;13.336;2023-06-22T06:10:26;101544.25;;;26.47;59.23
16595;BME280;8410;52.532;13.336;2023-06-22T06:12:54;101538.50;;;25.93;60.00
16595;BME280;8410;52.532;13.336;2023-06-22T06:15:22;101536.84;;;27.18;56.77
16595;BME280;8410;52.532;13.336;2023-06-22T06:17:51;101531.84;;;25.11;61.17
16595;BME280;8410;52.532;13.336;2023-06-22T06:20:19;101533.38;;;25.42;60.65
16595;BME280;8410;52.532;13.336;2023-06-22T06:22:47;101534.59;;;26.46;59.38
16595;BME280;8410;52.532;13.336;2023-06-22T06:25:15;101519.09;;;27.22;57.61
16595;BME280;8410;52.532;13.336;2023-06-22T06:27:44;101523.13;;;26.47;60.08
16595;BME280;8410;52.532;13.336;2023-06-22T06:30:13;101522.84;;;26.75;59.12
16595;BME280;8410;52.532;13.336;2023-06-22T06:32:42;101535.06;;;26.78;59.64
16595;BME280;8410;52.532;13.336;2023-06-22T06:35:13;101528.22;;;28.28;56.63
16595;BME280;8410;52.532;13.336;2023-06-22T06:37:42;101523.19;;;28.93;55.26
16595;BME280;8410;52.532;13.336;2023-06-22T06:40:11;101532.75;;;28.44;55.79
16595;BME280;8410;52.532;13.336;2023-06-22T06:42:40;101534.34;;;27.55;55.66
16595;BME280;8410;52.532;13.336;2023-06-22T06:45:12;101535.97;;;27.76;56.90
16595;BME280;8410;52.532;13.336;2023-06-22T06:47:40;101534.69;;;28.40;55.38
16595;BME280;8410;52.532;13.336;2023-06-22T06:50:08;101527.91;;;28.34;54.75
16595;BME280;8410;52.532;13.336;2023-06-22T06:52:36;101523.69;;;28.30;55.20
16595;BME280;8410;52.532;13.336;2023-06-22T06:55:05;101521.19;;;28.10;54.81
16595;BME280;8410;52.532;13.336;2023-06-22T06:57:35;101513.13;;;28.65;54.00
16595;BME280;8410;52.532;13.336;2023-06-22T07:00:06;101520.50;;;27.29;55.50
16595;BME280;8410;52.532;13.336;2023-06-22T07:02:38;101531.47;;;26.58;57.36
16595;BME280;8410;52.532;13.336;2023-06-22T07:05:06;101526.09;;;26.82;55.73
16595;BME280;8410;52.532;13.336;2023-06-22T07:07:34;101521.78;;;26.79;57.11
16595;BME280;8410;52.532;13.336;2023-06-22T07:10:05;101510.22;;;27.02;55.88
16595;BME280;8410;52.532;13.336;2023-06-22T07:12:33;101518.53;;;26.73;56.57
16595;BME280;8410;52.532;13.336;2023-06-22T07:15:02;101498.38;;;27.11;55.01
16595;BME280;8410;52.532;13.336;2023-06-22T07:17:29;101502.63;;;26.95;55.60
16595;BME280;8410;52.532;13.336;2023-06-22T07:19:58;101504.50;;;26.08;57.25
16595;BME280;8410;52.532;13.336;2023-06-22T07:22:26;101510.88;;;26.24;56.18
16595;BME280;8410;52.532;13.336;2023-06-22T07:24:53;101495.56;;;26.95;54.63
16595;BME280;8410;52.532;13.336;2023-06-22T07:27:21;101496.84;;;27.26;54.51
16595;BME280;8410;52.532;13.336;2023-06-22T07:29:48;101492.03;;;27.15;53.66
16595;BME280;8410;52.532;13.336;2023-06-22T07:32:16;101490.47;;;28.06;52.46
16595;BME280;8410;52.532;13.336;2023-06-22T07:34:43;101480.88;;;28.57;51.86
16595;BME280;8410;52.532;13.336;2023-06-22T07:37:12;101482.16;;;28.50;51.37
16595;BME280;8410;52.532;13.336;2023-06-22T07:39:40;101499.66;;;26.61;52.92
16595;BME280;8410;52.532;13.336;2023-06-22T07:42:08;101484.47;;;26.87;53.14
16595;BME280;8410;52.532;13.336;2023-06-22T07:44:36;101480.25;;;26.83;53.06
16595;BME280;8410;52.532;13.336;2023-06-22T07:47:04;101484.72;;;27.60;50.92
16595;BME280;8410;52.532;13.336;2023-06-22T07:49:31;101479.03;;;28.05;51.48
16595;BME280;8410;52.532;13.336;2023-06-22T07:51:59;101472.19;;;28.88;49.91
16595;BME280;8410;52.532;13.336;2023-06-22T07:54:31;101483.06;;;27.95;50.91
16595;BME280;8410;52.532;13.336;2023-06-22T07:56:58;101484.34;;;26.90;49.98
16595;BME280;8410;52.532;13.336;2023-06-22T07:59:25;101473.44;;;26.77;50.23
16595;BME280;8410;52.532;13.336;2023-06-22T08:01:54;101486.03;;;26.50;50.66
16595;BME280;8410;52.532;13.336;2023-06-22T08:04:22;101476.00;;;27.20;49.58
16595;BME280;8410;52.532;13.336;2023-06-22T08:06:50;101474.00;;;28.18;48.27
16595;BME280;8410;52.532;13.336;2023-06-22T08:09:17;101477.56;;;28.00;47.68
16595;BME280;8410;52.532;13.336;2023-06-22T08:11:46;101468.13;;;28.48;46.92
16595;BME280;8410;52.532;13.336;2023-06-22T08:14:14;101473.06;;;28.19;47.32
16595;BME280;8410;52.532;13.336;2023-06-22T08:16:42;101479.44;;;27.60;49.29
16595;BME280;8410;52.532;13.336;2023-06-22T08:19:09;101479.78;;;28.26;48.57
16595;BME280;8410;52.532;13.336;2023-06-22T08:21:37;101480.84;;;28.22;48.44
16595;BME280;8410;52.532;13.336;2023-06-22T08:24:05;101485.59;;;27.41;49.48
16595;BME280;8410;52.532;13.336;2023-06-22T08:26:33;101482.72;;;27.06;49.81
16595;BME280;8410;52.532;13.336;2023-06-22T08:29:04;101495.41;;;26.15;51.26
16595;BME280;8410;52.532;13.336;2023-06-22T08:31:32;101484.06;;;26.96;51.03
16595;BME280;8410;52.532;13.336;2023-06-22T08:34:01;101486.94;;;26.71;51.32
16595;BME280;8410;52.532;13.336;2023-06-22T08:36:28;101482.34;;;26.75;52.07
16595;BME280;8410;52.532;13.336;2023-06-22T08:39:01;101469.03;;;27.74;49.76
16595;BME280;8410;52.532;13.336;2023-06-22T08:41:29;101471.78;;;27.91;49.49
16595;BME280;8410;52.532;13.336;2023-06-22T08:43:57;101461.44;;;28.22;49.26
16595;BME280;8410;52.532;13.336;2023-06-22T08:46:26;101465.09;;;28.55;48.63
16595;BME280;8410;52.532;13.336;2023-06-22T08:48:57;101471.84;;;28.44;47.83
16595;BME280;8410;52.532;13.336;2023-06-22T08:51:25;101471.06;;;28.59;48.37
16595;BME280;8410;52.532;13.336;2023-06-22T08:53:52;101484.38;;;27.48;49.77
16595;BME280;8410;52.532;13.336;2023-06-22T08:56:20;101476.81;;;27.77;49.39
16595;BME280;8410;52.532;13.336;2023-06-22T08:58:47;101482.88;;;26.83;51.29
16595;BME280;8410;52.532;13.336;2023-06-22T09:01:15;101473.84;;;27.85;49.84
16595;BME280;8410;52.532;13.336;2023-06-22T09:03:44;101472.84;;;27.49;50.18
16595;BME280;8410;52.532;13.336;2023-06-22T09:06:20;101466.84;;;28.37;48.67
16595;BME280;8410;52.532;13.336;2023-06-22T09:08:48;101471.06;;;28.59;48.49
16595;BME280;8410;52.532;13.336;2023-06-22T09:11:15;101472.44;;;28.31;47.68
16595;BME280;8410;52.532;13.336;2023-06-22T09:13:43;101473.31;;;27.40;49.24
16595;BME280;8410;52.532;13.336;2023-06-22T09:16:10;101473.31;;;27.77;48.73
16595;BME280;8410;52.532;13.336;2023-06-22T09:18:38;101464.13;;;27.28;51.01
16595;BME280;8410;52.532;13.336;2023-06-22T09:21:07;101461.41;;;28.58;48.58
16595;BME280;8410;52.532;13.336;2023-06-22T09:23:34;101472.41;;;27.40;50.93
16595;BME280;8410;52.532;13.336;2023-06-22T09:26:02;101463.59;;;27.77;50.71
16595;BME280;8410;52.532;13.336;2023-06-22T09:28:30;101465.22;;;28.18;49.39
16595;BME280;8410;52.532;13.336;2023-06-22T09:30:58;101453.56;;;28.90;48.54
16595;BME280;8410;52.532;13.336;2023-06-22T09:33:26;101455.63;;;28.85;47.71
16595;BME280;8410;52.532;13.336;2023-06-22T09:35:54;101453.94;;;28.49;48.19
16595;BME280;8410;52.532;13.336;2023-06-22T09:38:24;101451.41;;;28.80;46.48
16595;BME280;8410;52.532;13.336;2023-06-22T09:40:51;101456.06;;;28.06;48.49
16595;BME280;8410;52.532;13.336;2023-06-22T09:43:19;101438.88;;;28.49;47.68
16595;BME280;8410;52.532;13.336;2023-06-22T09:45:46;101437.41;;;28.61;48.53
16595;BME280;8410;52.532;13.336;2023-06-22T09:48:14;101441.34;;;29.20;47.00
16595;BME280;8410;52.532;13.336;2023-06-22T09:50:41;101440.69;;;28.66;48.86
16595;BME280;8410;52.532;13.336;2023-06-22T09:53:09;101432.00;;;28.80;48.11
16595;BME280;8410;52.532;13.336;2023-06-22T09:55:38;101444.25;;;28.65;47.87
16595;BME280;8410;52.532;13.336;2023-06-22T09:58:05;101441.13;;;29.08;48.53
16595;BME280;8410;52.532;13.336;2023-06-22T10:00:33;101449.63;;;28.97;47.81
16595;BME280;8410;52.532;13.336;2023-06-22T10:03:00;101448.72;;;29.47;48.32
16595;BME280;8410;52.532;13.336;2023-06-22T10:05:28;101447.00;;;29.46;47.16
16595;BME280;8410;52.532;13.336;2023-06-22T10:07:56;101442.84;;;28.75;47.59
16595;BME280;8410;52.532;13.336;2023-06-22T10:10:24;101438.66;;;28.71;47.55
16595;BME280;8410;52.532;13.336;2023-06-22T10:12:56;101447.50;;;28.35;48.32
16595;BME280;8410;52.532;13.336;2023-06-22T10:15:24;101449.25;;;28.36;49.12
16595;BME280;8410;52.532;13.336;2023-06-22T10:17:54;101443.06;;;29.53;47.29
16595;BME280;8410;52.532;13.336;2023-06-22T10:20:21;101444.16;;;29.00;47.88
16595;BME280;8410;52.532;13.336;2023-06-22T10:22:49;101435.63;;;29.28;47.62
16595;BME280;8410;52.532;13.336;2023-06-22T10:25:17;101431.75;;;29.34;47.20
16595;BME280;8410;52.532;13.336;2023-06-22T10:27:45;101435.19;;;29.36;47.74
16595;BME280;8410;52.532;13.336;2023-06-22T10:30:14;101428.63;;;28.43;49.51
16595;BME280;8410;52.532;13.336;2023-06-22T10:32:42;101436.63;;;28.42;49.85
16595;BME280;8410;52.532;13.336;2023-06-22T10:35:10;101437.44;;;27.71;50.52
16595;BME280;8410;52.532;13.336;2023-06-22T10:37:52;101420.72;;;28.24;50.07
16595;BME280;8410;52.532;13.336;2023-06-22T10:40:20;101425.22;;;27.87;50.87
16595;BME280;8410;52.532;13.336;2023-06-22T10:42:48;101425.22;;;27.87;50.65
16595;BME280;8410;52.532;13.336;2023-06-22T10:45:17;101418.50;;;28.85;49.10
16595;BME280;8410;52.532;13.336;2023-06-22T10:47:45;101418.22;;;28.04;49.95
16595;BME280;8410;52.532;13.336;2023-06-22T10:50:12;101405.16;;;28.86;48.54
16595;BME280;8410;52.532;13.336;2023-06-22T10:52:40;101398.34;;;28.65;48.85
16595;BME280;8410;52.532;13.336;2023-06-22T10:55:09;101404.50;;;28.65;48.97
16595;BME280;8410;52.532;13.336;2023-06-22T10:57:36;101399.78;;;28.88;49.63
16595;BME280;8410;52.532;13.336;2023-06-22T11:00:06;101395.41;;;29.67;47.86
16595;BME280;8410;52.532;13.336;2023-06-22T11:02:36;101396.41;;;28.68;49.06
16595;BME280;8410;52.532;13.336;2023-06-22T11:05:05;101401.34;;;27.70;50.80
16595;BME280;8410;52.532;13.336;2023-06-22T11:07:33;101388.66;;;28.48;49.45
16595;BME280;8410;52.532;13.336;2023-06-22T11:10:00;101395.41;;;28.87;49.86
16595;BME280;8410;52.532;13.336;2023-06-22T11:12:28;101381.50;;;28.99;49.40
16595;BME280;8410;52.532;13.336;2023-06-22T11:14:55;101392.06;;;29.64;47.80
16595;BME280;8410;52.532;13.336;2023-06-22T11:17:23;101388.34;;;29.82;48.41
16595;BME280;8410;52.532;13.336;2023-06-22T11:19:52;101379.53;;;29.82;47.69
16595;BME280;8410;52.532;13.336;2023-06-22T11:22:20;101383.53;;;28.45;49.20
16595;BME280;8410;52.532;13.336;2023-06-22T11:24:47;101382.31;;;29.17;48.21
16595;BME280;8410;52.532;13.336;2023-06-22T11:27:15;101376.41;;;29.12;48.02
16595;BME280;8410;52.532;13.336;2023-06-22T11:29:42;101371.84;;;29.45;47.95
16595;BME280;8410;52.532;13.336;2023-06-22T11:32:10;101363.06;;;29.91;47.22
16595;BME280;8410;52.532;13.336;2023-06-22T11:34:40;101356.06;;;30.04;47.11
16595;BME280;8410;52.532;13.336;2023-06-22T11:37:09;101359.78;;;30.46;46.00
16595;BME280;8410;52.532;13.336;2023-06-22T11:39:36;101355.03;;;30.37;46.47
16595;BME280;8410;52.532;13.336;2023-06-22T11:42:13;101351.66;;;30.19;46.75
16595;BME280;8410;52.532;13.336;2023-06-22T11:44:41;101375.09;;;29.03;47.77
16595;BME280;8410;52.532;13.336;2023-06-22T11:47:08;101372.94;;;28.45;47.93
16595;BME280;8410;52.532;13.336;2023-06-22T11:49:36;101377.00;;;28.68;48.54
16595;BME280;8410;52.532;13.336;2023-06-22T11:52:04;101375.09;;;28.36;48.75
16595;BME280;8410;52.532;13.336;2023-06-22T11:54:33;101379.81;;;28.65;48.43
16595;BME280;8410;52.532;13.336;2023-06-22T11:57:00;101381.34;;;28.53;48.43
16595;BME280;8410;52.532;13.336;2023-06-22T11:59:28;101372.00;;;29.58;46.58
16595;BME280;8410;52.532;13.336;2023-06-22T12:01:57;101372.72;;;29.46;47.19
16595;BME280;8410;52.532;13.336;2023-06-22T12:04:24;101367.25;;;29.65;47.05
16595;BME280;8410;52.532;13.336;2023-06-22T12:06:52;101374.47;;;29.61;47.04
16595;BME280;8410;52.532;13.336;2023-06-22T12:09:19;101367.25;;;29.49;46.43
16595;BME280;8410;52.532;13.336;2023-06-22T12:11:48;101366.53;;;28.98;47.79
16595;BME280;8410;52.532;13.336;2023-06-22T12:14:16;101354.25;;;29.44;47.55
16595;BME280;8410;52.532;13.336;2023-06-22T12:16:43;101355.97;;;27.97;49.03
16595;BME280;8410;52.532;13.336;2023-06-22T12:19:11;101346.44;;;28.45;48.57
16595;BME280;8410;52.532;13.336;2023-06-22T12:21:38;101353.09;;;28.52;48.76
16595;BME280;8410;52.532;13.336;2023-06-22T12:24:07;101341.00;;;28.13;49.06
16595;BME280;8410;52.532;13.336;2023-06-22T12:26:54;101328.25;;;29.03;47.69
16595;BME280;8410;52.532;13.336;2023-06-22T12:29:24;101327.84;;;29.11;47.52
16595;BME280;8410;52.532;13.336;2023-06-22T12:31:52;101326.84;;;28.80;48.49
16595;BME280;8410;52.532;13.336;2023-06-22T12:34:20;101323.91;;;28.53;48.16
16595;BME280;8410;52.532;13.336;2023-06-22T12:36:58;101319.69;;;29.46;46.60
16595;BME280;8410;52.532;13.336;2023-06-22T12:39:26;101322.09;;;29.19;47.42
16595;BME280;8410;52.532;13.336;2023-06-22T12:41:55;101314.13;;;29.81;46.29
16595;BME280;8410;52.532;13.336;2023-06-22T12:44:22;101320.19;;;29.37;47.04
16595;BME280;8410;52.532;13.336;2023-06-22T12:46:50;101316.09;;;29.31;46.72
16595;BME280;8410;52.532;13.336;2023-06-22T12:49:17;101308.38;;;28.63;48.49
16595;BME280;8410;52.532;13.336;2023-06-22T12:51:45;101310.16;;;28.29;48.41
16595;BME280;8410;52.532;13.336;2023-06-22T12:54:12;101291.28;;;28.35;49.41
16595;BME280;8410;52.532;13.336;2023-06-22T12:56:40;101293.91;;;28.53;48.69
16595;BME280;8410;52.532;13.336;2023-06-22T12:59:11;101302.41;;;28.75;48.10
16595;BME280;8410;52.532;13.336;2023-06-22T13:01:39;101284.69;;;29.70;47.14
16595;BME280;8410;52.532;13.336;2023-06-22T13:04:06;101301.22;;;29.13;48.05
16595;BME280;8410;52.532;13.336;2023-06-22T13:06:34;101289.50;;;29.01;47.99
16595;BME280;8410;52.532;13.336;2023-06-22T13:09:01;101292.63;;;28.60;48.47